sensor_id;sensor_type;location;lat;lon;timestamp;P1;durP1;ratioP1;P2;durP2;ratioP2
72261;SDS011;60173;52.112;8.648;2022-08-01T00:00:02;10.30;;;8.20;;
72261;SDS011;60173;52.112;8.648;2022-08-01T00:02:34;6.85;;;5.80;;
72261;SDS011;60173;52.112;8.648;2022-08-01T00:05:00;10.43;;;7.10;;
72261;SDS011;60173;52.112;8.648;2022-08-01T00:07:26;9.23;;;7.10;;
72261;SDS011;60173;52.112;8.648;2022-08-01T00:09:53;8.27;;;6.47;;
72261;SDS011;60173;52.112;8.648;2022-08-01T00:12:19;10.32;;;6.90;;
72261;SDS011;60173;52.112;8.648;2022-08-01T00:14:46;9.27;;;7.15;;
72261;SDS011;60173;52.112;8.648;2022-08-01T00:17:12;7.30;;;6.28;;
72261;SDS011;60173;52.112;8.648;2022-08-01T00:19:38;8.85;;;6.53;;
72261;SDS011;60173;52.112;8.648;2022-08-01T00:22:05;9.88;;;6.45;;
72261;SDS011;60173;52.112;8.648;2022-08-01T00:24:32;10.27;;;6.78;;
72261;SDS011;60173;52.112;8.648;2022-08-01T00:26:58;9.18;;;6.53;;
72261;SDS011;60173;52.112;8.648;2022-08-01T00:29:25;11.02;;;6.97;;
72261;SDS011;60173;52.112;8.648;2022-08-01T00:32:11;13.23;;;6.97;;
72261;SDS011;60173;52.112;8.648;2022-08-01T00:34:37;11.23;;;6.65;;
72261;SDS011;60173;52.112;8.648;2022-08-01T00:37:04;8.20;;;6.50;;
72261;SDS011;60173;52.112;8.648;2022-08-01T00:39:30;9.95;;;6.65;;
72261;SDS011;60173;52.112;8.648;2022-08-01T00:41:56;10.10;;;6.97;;
72261;SDS011;60173;52.112;8.648;2022-08-01T00:44:27;9.63;;;6.50;;
72261;SDS011;60173;52.112;8.648;2022-08-01T00:46:53;9.52;;;6.88;;
72261;SDS011;60173;52.112;8.648;2022-08-01T00:49:20;12.35;;;7.43;;
72261;SDS011;60173;52.112;8.648;2022-08-01T00:51:46;9.82;;;7.07;;
72261;SDS011;60173;52.112;8.648;2022-08-01T00:56:46;9.60;;;7.13;;
72261;SDS011;60173;52.112;8.648;2022-08-01T00:59:13;10.57;;;6.90;;
72261;SDS011;60173;52.112;8.648;2022-08-01T01:01:40;8.88;;;6.60;;
72261;SDS011;60173;52.112;8.648;2022-08-01T01:04:12;9.23;;;6.18;;
72261;SDS011;60173;52.112;8.648;2022-08-01T01:12:59;12.80;;;8.13;;
72261;SDS011;60173;52.112;8.648;2022-08-01T01:15:35;12.75;;;8.05;;
72261;SDS011;60173;52.112;8.648;2022-08-01T01:18:04;14.95;;;7.93;;
72261;SDS011;60173;52.112;8.648;2022-08-01T01:20:36;15.00;;;8.05;;
72261;SDS011;60173;52.112;8.648;2022-08-01T01:29:06;10.85;;;7.00;;
72261;SDS011;60173;52.112;8.648;2022-08-01T01:34:43;10.50;;;7.22;;
72261;SDS011;60173;52.112;8.648;2022-08-01T01:37:15;11.25;;;6.82;;
72261;SDS011;60173;52.112;8.648;2022-08-01T01:39:46;13.48;;;7.68;;
72261;SDS011;60173;52.112;8.648;2022-08-01T01:42:19;11.70;;;7.78;;
72261;SDS011;60173;52.112;8.648;2022-08-01T01:44:48;10.18;;;6.43;;
72261;SDS011;60173;52.112;8.648;2022-08-01T01:47:16;9.77;;;6.47;;
72261;SDS011;60173;52.112;8.648;2022-08-01T01:49:43;10.98;;;5.65;;
72261;SDS011;60173;52.112;8.648;2022-08-01T01:52:15;8.85;;;5.15;;
72261;SDS011;60173;52.112;8.648;2022-08-01T01:54:45;12.57;;;5.20;;
72261;SDS011;60173;52.112;8.648;2022-08-01T01:57:14;9.60;;;4.60;;
72261;SDS011;60173;52.112;8.648;2022-08-01T01:59:42;7.47;;;4.85;;
72261;SDS011;60173;52.112;8.648;2022-08-01T02:02:11;6.82;;;4.25;;
72261;SDS011;60173;52.112;8.648;2022-08-01T02:04:42;7.25;;;4.68;;
72261;SDS011;60173;52.112;8.648;2022-08-01T02:07:10;6.07;;;4.03;;
72261;SDS011;60173;52.112;8.648;2022-08-01T02:09:41;8.85;;;5.20;;
72261;SDS011;60173;52.112;8.648;2022-08-01T02:12:11;10.65;;;4.55;;
72261;SDS011;60173;52.112;8.648;2022-08-01T02:14:39;5.63;;;4.18;;
72261;SDS011;60173;52.112;8.648;2022-08-01T02:17:09;7.30;;;4.35;;
72261;SDS011;60173;52.112;8.648;2022-08-01T02:19:37;7.07;;;4.57;;
72261;SDS011;60173;52.112;8.648;2022-08-01T02:22:05;8.27;;;5.10;;
72261;SDS011;60173;52.112;8.648;2022-08-01T02:27:30;6.25;;;4.43;;
72261;SDS011;60173;52.112;8.648;2022-08-01T02:30:04;12.55;;;5.15;;
72261;SDS011;60173;52.112;8.648;2022-08-01T02:32:48;9.52;;;4.95;;
72261;SDS011;60173;52.112;8.648;2022-08-01T02:35:20;6.47;;;4.80;;
72261;SDS011;60173;52.112;8.648;2022-08-01T02:37:52;9.02;;;4.40;;
72261;SDS011;60173;52.112;8.648;2022-08-01T02:40:21;9.40;;;4.32;;
72261;SDS011;60173;52.112;8.648;2022-08-01T02:42:49;6.93;;;4.30;;
72261;SDS011;60173;52.112;8.648;2022-08-01T02:45:20;7.82;;;4.15;;
72261;SDS011;60173;52.112;8.648;2022-08-01T02:47:51;6.60;;;4.33;;
72261;SDS011;60173;52.112;8.648;2022-08-01T02:50:21;10.75;;;4.53;;
72261;SDS011;60173;52.112;8.648;2022-08-01T02:52:50;7.10;;;4.03;;
72261;SDS011;60173;52.112;8.648;2022-08-01T02:55:18;6.47;;;3.75;;
72261;SDS011;60173;52.112;8.648;2022-08-01T02:57:46;5.55;;;4.20;;
72261;SDS011;60173;52.112;8.648;2022-08-01T03:00:18;6.43;;;3.92;;
72261;SDS011;60173;52.112;8.648;2022-08-01T03:02:45;6.47;;;4.18;;
72261;SDS011;60173;52.112;8.648;2022-08-01T03:05:14;9.38;;;5.55;;
72261;SDS011;60173;52.112;8.648;2022-08-01T03:07:42;7.63;;;4.68;;
72261;SDS011;60173;52.112;8.648;2022-08-01T03:10:13;7.97;;;4.22;;
72261;SDS011;60173;52.112;8.648;2022-08-01T03:12:41;5.93;;;4.55;;
72261;SDS011;60173;52.112;8.648;2022-08-01T03:15:13;8.88;;;5.15;;
72261;SDS011;60173;52.112;8.648;2022-08-01T03:17:41;10.27;;;5.28;;
72261;SDS011;60173;52.112;8.648;2022-08-01T03:20:10;7.10;;;5.30;;
72261;SDS011;60173;52.112;8.648;2022-08-01T03:22:39;7.90;;;4.53;;
72261;SDS011;60173;52.112;8.648;2022-08-01T03:25:08;6.30;;;4.70;;
72261;SDS011;60173;52.112;8.648;2022-08-01T03:27:36;7.43;;;5.10;;
72261;SDS011;60173;52.112;8.648;2022-08-01T03:30:03;7.30;;;4.93;;
72261;SDS011;60173;52.112;8.648;2022-08-01T03:32:31;8.15;;;4.93;;
72261;SDS011;60173;52.112;8.648;2022-08-01T03:34:57;8.93;;;5.55;;
72261;SDS011;60173;52.112;8.648;2022-08-01T03:37:25;7.80;;;5.30;;
72261;SDS011;60173;52.112;8.648;2022-08-01T03:39:55;8.10;;;5.90;;
72261;SDS011;60173;52.112;8.648;2022-08-01T03:42:32;9.13;;;5.93;;
72261;SDS011;60173;52.112;8.648;2022-08-01T03:45:05;7.10;;;5.03;;
72261;SDS011;60173;52.112;8.648;2022-08-01T03:47:38;6.72;;;5.15;;
72261;SDS011;60173;52.112;8.648;2022-08-01T03:50:10;8.57;;;5.70;;
72261;SDS011;60173;52.112;8.648;2022-08-01T03:52:39;8.88;;;5.90;;
72261;SDS011;60173;52.112;8.648;2022-08-01T03:55:09;9.73;;;6.20;;
72261;SDS011;60173;52.112;8.648;2022-08-01T03:57:37;11.85;;;8.07;;
72261;SDS011;60173;52.112;8.648;2022-08-01T04:00:05;10.48;;;7.53;;
72261;SDS011;60173;52.112;8.648;2022-08-01T04:02:33;10.00;;;7.45;;
72261;SDS011;60173;52.112;8.648;2022-08-01T04:04:59;11.38;;;7.82;;
72261;SDS011;60173;52.112;8.648;2022-08-01T04:07:28;10.13;;;7.70;;
72261;SDS011;60173;52.112;8.648;2022-08-01T04:09:56;9.20;;;7.85;;
72261;SDS011;60173;52.112;8.648;2022-08-01T04:12:22;11.15;;;7.95;;
72261;SDS011;60173;52.112;8.648;2022-08-01T04:14:49;15.20;;;9.45;;
72261;SDS011;60173;52.112;8.648;2022-08-01T04:17:16;13.52;;;8.50;;
72261;SDS011;60173;52.112;8.648;2022-08-01T04:19:43;10.98;;;8.80;;
72261;SDS011;60173;52.112;8.648;2022-08-01T04:22:11;11.52;;;8.75;;
72261;SDS011;60173;52.112;8.648;2022-08-01T04:24:40;9.20;;;6.88;;
72261;SDS011;60173;52.112;8.648;2022-08-01T04:27:10;12.75;;;8.18;;
72261;SDS011;60173;52.112;8.648;2022-08-01T04:29:39;14.80;;;8.48;;
72261;SDS011;60173;52.112;8.648;2022-08-01T04:32:07;12.73;;;8.07;;
72261;SDS011;60173;52.112;8.648;2022-08-01T04:34:38;12.82;;;7.82;;
72261;SDS011;60173;52.112;8.648;2022-08-01T04:37:07;11.25;;;7.65;;
72261;SDS011;60173;52.112;8.648;2022-08-01T04:39:38;10.65;;;7.82;;
72261;SDS011;60173;52.112;8.648;2022-08-01T04:42:16;13.43;;;8.80;;
72261;SDS011;60173;52.112;8.648;2022-08-01T04:44:54;13.98;;;8.45;;
72261;SDS011;60173;52.112;8.648;2022-08-01T04:47:20;15.88;;;9.50;;
72261;SDS011;60173;52.112;8.648;2022-08-01T04:49:48;13.40;;;8.93;;
72261;SDS011;60173;52.112;8.648;2022-08-01T04:52:15;12.50;;;8.63;;
72261;SDS011;60173;52.112;8.648;2022-08-01T04:54:46;13.70;;;8.32;;
72261;SDS011;60173;52.112;8.648;2022-08-01T04:57:13;12.20;;;8.65;;
72261;SDS011;60173;52.112;8.648;2022-08-01T04:59:41;12.75;;;8.52;;
72261;SDS011;60173;52.112;8.648;2022-08-01T05:02:16;14.20;;;8.63;;
72261;SDS011;60173;52.112;8.648;2022-08-01T05:04:44;15.85;;;9.05;;
72261;SDS011;60173;52.112;8.648;2022-08-01T05:07:12;11.55;;;8.60;;
72261;SDS011;60173;52.112;8.648;2022-08-01T05:09:39;15.98;;;10.07;;
72261;SDS011;60173;52.112;8.648;2022-08-01T05:12:06;12.02;;;8.82;;
72261;SDS011;60173;52.112;8.648;2022-08-01T05:14:34;13.15;;;9.27;;
72261;SDS011;60173;52.112;8.648;2022-08-01T05:17:02;13.60;;;8.38;;
72261;SDS011;60173;52.112;8.648;2022-08-01T05:19:30;11.68;;;8.38;;
72261;SDS011;60173;52.112;8.648;2022-08-01T05:21:57;15.07;;;9.15;;
72261;SDS011;60173;52.112;8.648;2022-08-01T05:24:25;14.50;;;9.38;;
72261;SDS011;60173;52.112;8.648;2022-08-01T05:26:53;8.65;;;6.95;;
72261;SDS011;60173;52.112;8.648;2022-08-01T05:29:19;12.50;;;9.10;;
72261;SDS011;60173;52.112;8.648;2022-08-01T05:31:45;13.07;;;8.45;;
72261;SDS011;60173;52.112;8.648;2022-08-01T05:34:12;11.55;;;8.15;;
72261;SDS011;60173;52.112;8.648;2022-08-01T05:36:40;11.70;;;7.90;;
72261;SDS011;60173;52.112;8.648;2022-08-01T05:39:06;9.73;;;7.60;;
72261;SDS011;60173;52.112;8.648;2022-08-01T05:41:33;10.65;;;7.93;;
72261;SDS011;60173;52.112;8.648;2022-08-01T05:43:59;14.02;;;7.78;;
72261;SDS011;60173;52.112;8.648;2022-08-01T05:46:26;9.73;;;8.05;;
72261;SDS011;60173;52.112;8.648;2022-08-01T05:48:52;10.75;;;8.45;;
72261;SDS011;60173;52.112;8.648;2022-08-01T05:51:19;10.32;;;8.35;;
72261;SDS011;60173;52.112;8.648;2022-08-01T05:53:45;10.02;;;8.15;;
72261;SDS011;60173;52.112;8.648;2022-08-01T05:56:12;12.85;;;8.35;;
72261;SDS011;60173;52.112;8.648;2022-08-01T05:58:38;10.10;;;8.07;;
72261;SDS011;60173;52.112;8.648;2022-08-01T06:01:04;9.13;;;6.53;;
72261;SDS011;60173;52.112;8.648;2022-08-01T06:03:31;9.60;;;7.38;;
72261;SDS011;60173;52.112;8.648;2022-08-01T06:05:57;11.73;;;8.32;;
72261;SDS011;60173;52.112;8.648;2022-08-01T06:08:24;9.63;;;7.97;;
72261;SDS011;60173;52.112;8.648;2022-08-01T06:10:50;11.35;;;7.85;;
72261;SDS011;60173;52.112;8.648;2022-08-01T06:13:16;11.55;;;8.20;;
72261;SDS011;60173;52.112;8.648;2022-08-01T06:15:43;9.38;;;7.10;;
72261;SDS011;60173;52.112;8.648;2022-08-01T06:18:10;12.02;;;8.18;;
72261;SDS011;60173;52.112;8.648;2022-08-01T06:20:36;13.30;;;8.70;;
72261;SDS011;60173;52.112;8.648;2022-08-01T06:23:02;12.30;;;8.48;;
72261;SDS011;60173;52.112;8.648;2022-08-01T06:25:51;9.10;;;7.30;;
72261;SDS011;60173;52.112;8.648;2022-08-01T06:28:19;10.40;;;7.68;;
72261;SDS011;60173;52.112;8.648;2022-08-01T06:30:46;10.40;;;7.80;;
72261;SDS011;60173;52.112;8.648;2022-08-01T06:33:13;8.80;;;6.40;;
72261;SDS011;60173;52.112;8.648;2022-08-01T06:35:39;7.43;;;5.85;;
72261;SDS011;60173;52.112;8.648;2022-08-01T06:38:06;5.50;;;5.00;;
72261;SDS011;60173;52.112;8.648;2022-08-01T06:40:32;8.90;;;5.20;;
72261;SDS011;60173;52.112;8.648;2022-08-01T06:43:01;5.10;;;3.70;;
72261;SDS011;60173;52.112;8.648;2022-08-01T06:45:28;4.20;;;3.80;;
72261;SDS011;60173;52.112;8.648;2022-08-01T06:47:54;5.25;;;4.15;;
72261;SDS011;60173;52.112;8.648;2022-08-01T06:50:20;6.10;;;4.00;;
72261;SDS011;60173;52.112;8.648;2022-08-01T06:52:47;6.50;;;4.13;;
72261;SDS011;60173;52.112;8.648;2022-08-01T06:55:13;6.47;;;3.63;;
72261;SDS011;60173;52.112;8.648;2022-08-01T06:57:49;5.28;;;3.90;;
72261;SDS011;60173;52.112;8.648;2022-08-01T07:00:20;5.07;;;3.72;;
72261;SDS011;60173;52.112;8.648;2022-08-01T07:02:52;5.43;;;3.22;;
72261;SDS011;60173;52.112;8.648;2022-08-01T07:05:21;6.03;;;2.85;;
72261;SDS011;60173;52.112;8.648;2022-08-01T07:07:48;7.07;;;3.13;;
72261;SDS011;60173;52.112;8.648;2022-08-01T07:10:15;4.05;;;2.95;;
72261;SDS011;60173;52.112;8.648;2022-08-01T07:12:41;4.55;;;2.80;;
72261;SDS011;60173;52.112;8.648;2022-08-01T07:15:08;5.38;;;3.22;;
72261;SDS011;60173;52.112;8.648;2022-08-01T07:17:39;4.35;;;3.10;;
72261;SDS011;60173;52.112;8.648;2022-08-01T07:20:11;4.00;;;3.40;;
72261;SDS011;60173;52.112;8.648;2022-08-01T07:22:41;4.63;;;3.10;;
72261;SDS011;60173;52.112;8.648;2022-08-01T07:25:08;6.05;;;3.65;;
72261;SDS011;60173;52.112;8.648;2022-08-01T07:27:35;4.88;;;3.13;;
72261;SDS011;60173;52.112;8.648;2022-08-01T07:30:02;5.70;;;3.60;;
72261;SDS011;60173;52.112;8.648;2022-08-01T07:32:29;5.28;;;3.13;;
72261;SDS011;60173;52.112;8.648;2022-08-01T07:34:56;6.47;;;3.30;;
72261;SDS011;60173;52.112;8.648;2022-08-01T07:37:22;6.25;;;3.03;;
72261;SDS011;60173;52.112;8.648;2022-08-01T07:40:09;3.22;;;2.58;;
72261;SDS011;60173;52.112;8.648;2022-08-01T07:42:36;4.68;;;2.83;;
72261;SDS011;60173;52.112;8.648;2022-08-01T07:45:03;8.07;;;2.90;;
72261;SDS011;60173;52.112;8.648;2022-08-01T07:47:29;6.47;;;3.13;;
72261;SDS011;60173;52.112;8.648;2022-08-01T07:49:59;3.85;;;2.40;;
72261;SDS011;60173;52.112;8.648;2022-08-01T07:52:26;7.00;;;2.80;;
72261;SDS011;60173;52.112;8.648;2022-08-01T07:54:52;5.45;;;2.60;;
72261;SDS011;60173;52.112;8.648;2022-08-01T07:57:19;4.63;;;2.58;;
72261;SDS011;60173;52.112;8.648;2022-08-01T07:59:45;3.80;;;2.10;;
72261;SDS011;60173;52.112;8.648;2022-08-01T08:02:12;3.95;;;2.20;;
72261;SDS011;60173;52.112;8.648;2022-08-01T08:04:38;3.45;;;2.30;;
72261;SDS011;60173;52.112;8.648;2022-08-01T08:07:05;2.30;;;2.10;;
72261;SDS011;60173;52.112;8.648;2022-08-01T08:09:31;3.70;;;2.42;;
72261;SDS011;60173;52.112;8.648;2022-08-01T08:12:03;3.65;;;2.40;;
72261;SDS011;60173;52.112;8.648;2022-08-01T08:14:30;2.70;;;2.30;;
72261;SDS011;60173;52.112;8.648;2022-08-01T08:16:58;4.50;;;2.28;;
72261;SDS011;60173;52.112;8.648;2022-08-01T08:19:27;2.35;;;1.95;;
72261;SDS011;60173;52.112;8.648;2022-08-01T08:22:03;2.25;;;1.95;;
72261;SDS011;60173;52.112;8.648;2022-08-01T08:24:30;3.35;;;2.15;;
72261;SDS011;60173;52.112;8.648;2022-08-01T08:26:57;4.15;;;2.17;;
72261;SDS011;60173;52.112;8.648;2022-08-01T08:29:25;3.70;;;2.63;;
72261;SDS011;60173;52.112;8.648;2022-08-01T08:31:53;3.53;;;2.35;;
72261;SDS011;60173;52.112;8.648;2022-08-01T08:34:20;3.47;;;2.30;;
72261;SDS011;60173;52.112;8.648;2022-08-01T08:36:48;3.00;;;1.83;;
72261;SDS011;60173;52.112;8.648;2022-08-01T08:39:15;4.78;;;1.95;;
72261;SDS011;60173;52.112;8.648;2022-08-01T08:41:45;5.75;;;1.80;;
72261;SDS011;60173;52.112;8.648;2022-08-01T08:44:14;3.35;;;1.20;;
72261;SDS011;60173;52.112;8.648;2022-08-01T08:46:45;1.83;;;1.40;;
72261;SDS011;60173;52.112;8.648;2022-08-01T08:49:15;3.05;;;1.50;;
72261;SDS011;60173;52.112;8.648;2022-08-01T08:51:44;2.28;;;1.58;;
72261;SDS011;60173;52.112;8.648;2022-08-01T08:54:14;2.88;;;1.55;;
72261;SDS011;60173;52.112;8.648;2022-08-01T08:56:41;2.63;;;1.35;;
72261;SDS011;60173;52.112;8.648;2022-08-01T08:59:11;2.08;;;1.17;;
72261;SDS011;60173;52.112;8.648;2022-08-01T09:01:38;4.05;;;1.48;;
72261;SDS011;60173;52.112;8.648;2022-08-01T09:04:05;3.42;;;1.30;;
72261;SDS011;60173;52.112;8.648;2022-08-01T09:06:32;2.28;;;1.50;;
72261;SDS011;60173;52.112;8.648;2022-08-01T09:08:59;3.15;;;1.38;;
72261;SDS011;60173;52.112;8.648;2022-08-01T09:11:25;2.10;;;1.20;;
72261;SDS011;60173;52.112;8.648;2022-08-01T09:16:44;3.03;;;1.02;;
72261;SDS011;60173;52.112;8.648;2022-08-01T09:19:15;1.85;;;1.17;;
72261;SDS011;60173;52.112;8.648;2022-08-01T09:22:13;2.95;;;1.40;;
72261;SDS011;60173;52.112;8.648;2022-08-01T09:24:41;3.30;;;1.50;;
72261;SDS011;60173;52.112;8.648;2022-08-01T09:27:18;4.75;;;1.40;;
72261;SDS011;60173;52.112;8.648;2022-08-01T09:29:47;1.92;;;1.33;;
72261;SDS011;60173;52.112;8.648;2022-08-01T09:32:26;3.65;;;1.25;;
72261;SDS011;60173;52.112;8.648;2022-08-01T09:35:21;2.72;;;1.50;;
72261;SDS011;60173;52.112;8.648;2022-08-01T09:38:13;2.92;;;1.40;;
72261;SDS011;60173;52.112;8.648;2022-08-01T09:43:15;2.50;;;1.20;;
72261;SDS011;60173;52.112;8.648;2022-08-01T09:45:42;3.42;;;1.20;;
72261;SDS011;60173;52.112;8.648;2022-08-01T09:48:14;2.97;;;1.27;;
72261;SDS011;60173;52.112;8.648;2022-08-01T09:50:41;2.13;;;1.30;;
72261;SDS011;60173;52.112;8.648;2022-08-01T09:53:09;1.92;;;1.13;;
72261;SDS011;60173;52.112;8.648;2022-08-01T09:55:54;1.90;;;1.05;;
72261;SDS011;60173;52.112;8.648;2022-08-01T09:58:48;4.10;;;1.30;;
72261;SDS011;60173;52.112;8.648;2022-08-01T10:01:24;2.53;;;1.58;;
72261;SDS011;60173;52.112;8.648;2022-08-01T10:06:43;2.58;;;1.40;;
72261;SDS011;60173;52.112;8.648;2022-08-01T10:09:11;1.75;;;1.10;;
72261;SDS011;60173;52.112;8.648;2022-08-01T10:11:40;1.90;;;1.30;;
72261;SDS011;60173;52.112;8.648;2022-08-01T10:14:10;3.60;;;1.30;;
72261;SDS011;60173;52.112;8.648;2022-08-01T10:16:36;3.28;;;1.40;;
72261;SDS011;60173;52.112;8.648;2022-08-01T10:19:05;2.58;;;1.40;;
72261;SDS011;60173;52.112;8.648;2022-08-01T10:21:36;2.47;;;1.33;;
72261;SDS011;60173;52.112;8.648;2022-08-01T10:24:24;2.65;;;1.60;;
72261;SDS011;60173;52.112;8.648;2022-08-01T10:26:54;2.83;;;1.40;;
72261;SDS011;60173;52.112;8.648;2022-08-01T10:29:22;3.53;;;1.80;;
72261;SDS011;60173;52.112;8.648;2022-08-01T10:32:11;2.83;;;1.50;;
72261;SDS011;60173;52.112;8.648;2022-08-01T10:34:37;2.58;;;1.73;;
72261;SDS011;60173;52.112;8.648;2022-08-01T10:37:10;3.38;;;1.80;;
72261;SDS011;60173;52.112;8.648;2022-08-01T10:39:39;4.95;;;1.67;;
72261;SDS011;60173;52.112;8.648;2022-08-01T10:42:06;3.03;;;1.73;;
72261;SDS011;60173;52.112;8.648;2022-08-01T10:44:41;5.57;;;2.03;;
72261;SDS011;60173;52.112;8.648;2022-08-01T10:47:12;4.93;;;2.40;;
72261;SDS011;60173;52.112;8.648;2022-08-01T10:50:06;2.75;;;2.28;;
72261;SDS011;60173;52.112;8.648;2022-08-01T10:56:07;4.10;;;2.20;;
72261;SDS011;60173;52.112;8.648;2022-08-01T10:58:38;5.97;;;2.22;;
72261;SDS011;60173;52.112;8.648;2022-08-01T11:09:03;4.90;;;2.65;;
72261;SDS011;60173;52.112;8.648;2022-08-01T11:17:34;6.57;;;3.35;;
72261;SDS011;60173;52.112;8.648;2022-08-01T11:25:23;6.35;;;3.92;;
72261;SDS011;60173;52.112;8.648;2022-08-01T11:38:46;6.80;;;4.15;;
72261;SDS011;60173;52.112;8.648;2022-08-01T11:44:05;4.78;;;3.55;;
72261;SDS011;60173;52.112;8.648;2022-08-01T11:54:39;5.97;;;4.95;;
72261;SDS011;60173;52.112;8.648;2022-08-01T11:57:08;8.43;;;5.50;;
72261;SDS011;60173;52.112;8.648;2022-08-01T11:59:49;8.75;;;5.75;;
72261;SDS011;60173;52.112;8.648;2022-08-01T12:02:30;6.53;;;5.13;;
72261;SDS011;60173;52.112;8.648;2022-08-01T12:04:59;7.15;;;4.60;;
72261;SDS011;60173;52.112;8.648;2022-08-01T12:07:30;6.78;;;4.88;;
72261;SDS011;60173;52.112;8.648;2022-08-01T12:10:02;6.65;;;4.72;;
72261;SDS011;60173;52.112;8.648;2022-08-01T12:12:34;8.18;;;5.05;;
72261;SDS011;60173;52.112;8.648;2022-08-01T12:15:06;5.53;;;4.45;;
72261;SDS011;60173;52.112;8.648;2022-08-01T12:17:36;4.15;;;3.50;;
72261;SDS011;60173;52.112;8.648;2022-08-01T12:20:03;9.60;;;4.20;;
72261;SDS011;60173;52.112;8.648;2022-08-01T12:22:34;6.38;;;4.03;;
72261;SDS011;60173;52.112;8.648;2022-08-01T12:25:08;8.80;;;4.10;;
72261;SDS011;60173;52.112;8.648;2022-08-01T12:27:36;5.82;;;4.15;;
72261;SDS011;60173;52.112;8.648;2022-08-01T12:30:08;6.75;;;3.95;;
72261;SDS011;60173;52.112;8.648;2022-08-01T12:32:38;7.25;;;4.10;;
72261;SDS011;60173;52.112;8.648;2022-08-01T12:35:07;7.30;;;4.00;;
72261;SDS011;60173;52.112;8.648;2022-08-01T12:37:47;7.97;;;4.30;;
72261;SDS011;60173;52.112;8.648;2022-08-01T12:42:52;5.72;;;4.35;;
72261;SDS011;60173;52.112;8.648;2022-08-01T12:45:24;5.57;;;3.80;;
72261;SDS011;60173;52.112;8.648;2022-08-01T12:47:52;5.90;;;4.00;;
72261;SDS011;60173;52.112;8.648;2022-08-01T12:50:20;6.03;;;3.80;;
72261;SDS011;60173;52.112;8.648;2022-08-01T12:52:49;5.05;;;3.50;;
72261;SDS011;60173;52.112;8.648;2022-08-01T12:55:17;5.78;;;3.60;;
72261;SDS011;60173;52.112;8.648;2022-08-01T12:57:49;7.07;;;3.67;;
72261;SDS011;60173;52.112;8.648;2022-08-01T13:00:17;6.88;;;3.30;;
72261;SDS011;60173;52.112;8.648;2022-08-01T13:02:51;4.97;;;3.45;;
72261;SDS011;60173;52.112;8.648;2022-08-01T13:05:27;7.20;;;3.38;;
72261;SDS011;60173;52.112;8.648;2022-08-01T13:07:53;6.78;;;3.72;;
72261;SDS011;60173;52.112;8.648;2022-08-01T13:10:27;4.70;;;3.20;;
72261;SDS011;60173;52.112;8.648;2022-08-01T13:12:56;6.78;;;3.30;;
72261;SDS011;60173;52.112;8.648;2022-08-01T13:15:28;3.45;;;3.03;;
72261;SDS011;60173;52.112;8.648;2022-08-01T13:17:56;3.88;;;2.85;;
72261;SDS011;60173;52.112;8.648;2022-08-01T13:20:26;5.32;;;2.72;;
72261;SDS011;60173;52.112;8.648;2022-08-01T13:23:11;5.82;;;3.10;;
72261;SDS011;60173;52.112;8.648;2022-08-01T13:25:47;3.65;;;2.60;;
72261;SDS011;60173;52.112;8.648;2022-08-01T13:30:52;4.55;;;2.70;;
72261;SDS011;60173;52.112;8.648;2022-08-01T13:33:41;4.40;;;2.90;;
72261;SDS011;60173;52.112;8.648;2022-08-01T13:36:17;6.68;;;2.83;;
72261;SDS011;60173;52.112;8.648;2022-08-01T13:38:53;5.13;;;2.55;;
72261;SDS011;60173;52.112;8.648;2022-08-01T13:41:20;5.55;;;2.88;;
72261;SDS011;60173;52.112;8.648;2022-08-01T13:43:46;5.22;;;2.95;;
72261;SDS011;60173;52.112;8.648;2022-08-01T13:46:24;3.03;;;2.47;;
72261;SDS011;60173;52.112;8.648;2022-08-01T13:48:54;3.83;;;2.25;;
72261;SDS011;60173;52.112;8.648;2022-08-01T13:51:21;4.20;;;2.30;;
72261;SDS011;60173;52.112;8.648;2022-08-01T13:53:47;4.57;;;2.70;;
72261;SDS011;60173;52.112;8.648;2022-08-01T13:56:14;4.85;;;2.72;;
72261;SDS011;60173;52.112;8.648;2022-08-01T13:58:40;4.45;;;2.20;;
72261;SDS011;60173;52.112;8.648;2022-08-01T14:01:06;6.65;;;2.53;;
72261;SDS011;60173;52.112;8.648;2022-08-01T14:03:33;4.35;;;2.88;;
72261;SDS011;60173;52.112;8.648;2022-08-01T14:06:00;6.35;;;2.63;;
72261;SDS011;60173;52.112;8.648;2022-08-01T14:08:26;3.97;;;2.33;;
72261;SDS011;60173;52.112;8.648;2022-08-01T14:10:53;5.97;;;2.85;;
72261;SDS011;60173;52.112;8.648;2022-08-01T14:13:19;5.95;;;2.83;;
72261;SDS011;60173;52.112;8.648;2022-08-01T14:15:49;5.82;;;2.95;;
72261;SDS011;60173;52.112;8.648;2022-08-01T14:18:15;5.43;;;3.15;;
72261;SDS011;60173;52.112;8.648;2022-08-01T14:20:43;8.07;;;3.20;;
72261;SDS011;60173;52.112;8.648;2022-08-01T14:23:09;8.90;;;3.83;;
72261;SDS011;60173;52.112;8.648;2022-08-01T14:25:37;5.78;;;3.42;;
72261;SDS011;60173;52.112;8.648;2022-08-01T14:28:24;9.98;;;3.67;;
72261;SDS011;60173;52.112;8.648;2022-08-01T14:30:50;8.77;;;3.45;;
72261;SDS011;60173;52.112;8.648;2022-08-01T14:33:17;10.07;;;3.30;;
72261;SDS011;60173;52.112;8.648;2022-08-01T14:35:43;8.25;;;3.30;;
72261;SDS011;60173;52.112;8.648;2022-08-01T14:38:29;7.22;;;3.22;;
72261;SDS011;60173;52.112;8.648;2022-08-01T14:40:59;6.68;;;3.00;;
72261;SDS011;60173;52.112;8.648;2022-08-01T14:43:26;9.15;;;3.47;;
72261;SDS011;60173;52.112;8.648;2022-08-01T14:45:58;5.50;;;2.90;;
72261;SDS011;60173;52.112;8.648;2022-08-01T14:48:25;7.55;;;3.20;;
72261;SDS011;60173;52.112;8.648;2022-08-01T14:50:51;6.55;;;3.17;;
72261;SDS011;60173;52.112;8.648;2022-08-01T14:53:18;5.93;;;3.17;;
72261;SDS011;60173;52.112;8.648;2022-08-01T14:55:44;5.90;;;3.28;;
72261;SDS011;60173;52.112;8.648;2022-08-01T14:58:11;6.10;;;3.00;;
72261;SDS011;60173;52.112;8.648;2022-08-01T15:00:37;5.45;;;2.95;;
72261;SDS011;60173;52.112;8.648;2022-08-01T15:03:04;7.38;;;3.00;;
72261;SDS011;60173;52.112;8.648;2022-08-01T15:05:30;9.40;;;3.55;;
72261;SDS011;60173;52.112;8.648;2022-08-01T15:07:56;8.55;;;3.92;;
72261;SDS011;60173;52.112;8.648;2022-08-01T15:10:23;6.63;;;2.92;;
72261;SDS011;60173;52.112;8.648;2022-08-01T15:12:49;10.30;;;2.97;;
72261;SDS011;60173;52.112;8.648;2022-08-01T15:15:16;9.40;;;3.40;;
72261;SDS011;60173;52.112;8.648;2022-08-01T15:17:42;13.35;;;3.22;;
72261;SDS011;60173;52.112;8.648;2022-08-01T15:20:08;12.30;;;3.33;;
72261;SDS011;60173;52.112;8.648;2022-08-01T15:22:35;7.80;;;2.97;;
72261;SDS011;60173;52.112;8.648;2022-08-01T15:25:01;10.43;;;3.22;;
72261;SDS011;60173;52.112;8.648;2022-08-01T15:27:28;9.48;;;3.25;;
72261;SDS011;60173;52.112;8.648;2022-08-01T15:29:55;7.53;;;2.80;;
72261;SDS011;60173;52.112;8.648;2022-08-01T15:32:22;10.98;;;3.30;;
72261;SDS011;60173;52.112;8.648;2022-08-01T15:34:49;11.15;;;3.15;;
72261;SDS011;60173;52.112;8.648;2022-08-01T15:37:15;13.00;;;3.85;;
72261;SDS011;60173;52.112;8.648;2022-08-01T15:39:42;9.98;;;3.22;;
72261;SDS011;60173;52.112;8.648;2022-08-01T15:42:10;13.43;;;3.50;;
72261;SDS011;60173;52.112;8.648;2022-08-01T15:44:44;7.78;;;3.22;;
72261;SDS011;60173;52.112;8.648;2022-08-01T15:47:10;8.85;;;2.80;;
72261;SDS011;60173;52.112;8.648;2022-08-01T15:49:37;10.77;;;3.28;;
72261;SDS011;60173;52.112;8.648;2022-08-01T15:52:04;10.43;;;2.92;;
72261;SDS011;60173;52.112;8.648;2022-08-01T15:54:46;10.68;;;3.50;;
72261;SDS011;60173;52.112;8.648;2022-08-01T15:57:13;9.18;;;2.80;;
72261;SDS011;60173;52.112;8.648;2022-08-01T15:59:39;10.15;;;3.10;;
72261;SDS011;60173;52.112;8.648;2022-08-01T16:02:07;9.38;;;2.95;;
72261;SDS011;60173;52.112;8.648;2022-08-01T16:04:34;9.85;;;2.72;;
72261;SDS011;60173;52.112;8.648;2022-08-01T16:07:05;7.53;;;2.50;;
72261;SDS011;60173;52.112;8.648;2022-08-01T16:09:31;8.82;;;2.65;;
72261;SDS011;60173;52.112;8.648;2022-08-01T16:11:58;10.57;;;2.90;;
72261;SDS011;60173;52.112;8.648;2022-08-01T16:14:24;8.38;;;2.97;;